sensor_id;sensor_type;location;lat;lon;timestamp;temperature;humidity
10883;DHT22;5494;51.796;10.952;2022-09-13T00:01:17;16.00;99.90
10883;DHT22;5494;51.796;10.952;2022-09-13T00:03:46;16.00;99.90
10883;DHT22;5494;51.796;10.952;2022-09-13T00:06:17;16.00;99.90
10883;DHT22;5494;51.796;10.952;2022-09-13T00:08:47;16.00;99.90
10883;DHT22;5494;51.796;10.952;2022-09-13T00:11:19;16.00;99.90
10883;DHT22;5494;51.796;10.952;2022-09-13T00:13:50;16.00;99.90
10883;DHT22;5494;51.796;10.952;2022-09-13T00:16:21;16.00;99.90
10883;DHT22;5494;51.796;10.952;2022-09-13T00:18:52;15.90;99.90
10883;DHT22;5494;51.796;10.952;2022-09-13T00:21:22;15.90;99.90
10883;DHT22;5494;51.796;10.952;2022-09-13T00:23:52;15.90;99.90
10883;DHT22;5494;51.796;10.952;2022-09-13T00:26:25;16.00;99.90
10883;DHT22;5494;51.796;10.952;2022-09-13T00:28:57;16.00;99.90
10883;DHT22;5494;51.796;10.952;2022-09-13T00:31:26;16.10;99.90
10883;DHT22;5494;51.796;10.952;2022-09-13T00:33:58;16.10;99.90
10883;DHT22;5494;51.796;10.952;2022-09-13T00:36:27;16.20;99.90
10883;DHT22;5494;51.796;10.952;2022-09-13T00:38:56;16.30;99.90
10883;DHT22;5494;51.796;10.952;2022-09-13T00:41:28;16.40;99.90
10883;DHT22;5494;51.796;10.952;2022-09-13T00:43:58;16.40;99.90
10883;DHT22;5494;51.796;10.952;2022-09-13T00:46:33;16.40;99.90
10883;DHT22;5494;51.796;10.952;2022-09-13T00:49:11;16.40;99.90
10883;DHT22;5494;51.796;10.952;2022-09-13T00:51:46;16.30;99.90
10883;DHT22;5494;51.796;10.952;2022-09-13T00:54:22;16.30;99.90
10883;DHT22;5494;51.796;10.952;2022-09-13T00:56:58;16.30;99.90
10883;DHT22;5494;51.796;10.952;2022-09-13T00:59:33;16.20;99.90
10883;DHT22;5494;51.796;10.952;2022-09-13T01:02:06;16.30;99.90
10883;DHT22;5494;51.796;10.952;2022-09-13T01:04:35;16.30;99.90
10883;DHT22;5494;51.796;10.952;2022-09-13T01:07:07;16.30;99.90
10883;DHT22;5494;51.796;10.952;2022-09-13T01:09:40;16.40;99.90
10883;DHT22;5494;51.796;10.952;2022-09-13T01:12:22;16.40;99.90
10883;DHT22;5494;51.796;10.952;2022-09-13T01:15:00;16.50;99.90
10883;DHT22;5494;51.796;10.952;2022-09-13T01:17:33;16.50;99.90
10883;DHT22;5494;51.796;10.952;2022-09-13T01:20:03;16.50;99.90
10883;DHT22;5494;51.796;10.952;2022-09-13T01:26:27;16.50;99.90
10883;DHT22;5494;51.796;10.952;2022-09-13T01:29:30;16.40;99.90
10883;DHT22;5494;51.796;10.952;2022-09-13T01:32:16;16.40;99.90
10883;DHT22;5494;51.796;10.952;2022-09-13T01:34:58;16.40;99.90
10883;DHT22;5494;51.796;10.952;2022-09-13T01:37:45;16.50;99.90
10883;DHT22;5494;51.796;10.952;2022-09-13T01:40:35;16.60;99.90
10883;DHT22;5494;51.796;10.952;2022-09-13T01:43:26;16.70;99.90
10883;DHT22;5494;51.796;10.952;2022-09-13T01:46:05;16.70;99.90
10883;DHT22;5494;51.796;10.952;2022-09-13T01:48:53;16.70;99.90
10883;DHT22;5494;51.796;10.952;2022-09-13T01:51:27;16.60;99.90
10883;DHT22;5494;51.796;10.952;2022-09-13T01:54:11;16.60;99.90
10883;DHT22;5494;51.796;10.952;2022-09-13T01:56:52;16.60;99.90
10883;DHT22;5494;51.796;10.952;2022-09-13T01:59:33;16.50;99.90
10883;DHT22;5494;51.796;10.952;2022-09-13T02:02:11;16.50;99.90
10883;DHT22;5494;51.796;10.952;2022-09-13T02:04:51;16.40;99.90
10883;DHT22;5494;51.796;10.952;2022-09-13T02:07:29;16.30;99.90
10883;DHT22;5494;51.796;10.952;2022-09-13T02:10:06;16.30;99.90
10883;DHT22;5494;51.796;10.952;2022-09-13T02:12:42;16.30;99.90
10883;DHT22;5494;51.796;10.952;2022-09-13T02:15:15;16.20;99.90
10883;DHT22;5494;51.796;10.952;2022-09-13T02:17:50;16.30;99.90
10883;DHT22;5494;51.796;10.952;2022-09-13T02:20:31;16.20;99.90
10883;DHT22;5494;51.796;10.952;2022-09-13T02:23:08;16.20;99.90
10883;DHT22;5494;51.796;10.952;2022-09-13T02:25:42;16.20;99.90
10883;DHT22;5494;51.796;10.952;2022-09-13T02:28:16;16.10;99.90
10883;DHT22;5494;51.796;10.952;2022-09-13T02:30:52;16.10;99.90
10883;DHT22;5494;51.796;10.952;2022-09-13T02:33:29;16.10;99.90
10883;DHT22;5494;51.796;10.952;2022-09-13T02:36:04;16.10;99.90
10883;DHT22;5494;51.796;10.952;2022-09-13T02:38:40;16.10;99.90
10883;DHT22;5494;51.796;10.952;2022-09-13T02:41:20;16.10;99.90
10883;DHT22;5494;51.796;10.952;2022-09-13T02:43:57;16.10;99.90
10883;DHT22;5494;51.796;10.952;2022-09-13T02:46:45;16.20;99.90
10883;DHT22;5494;51.796;10.952;2022-09-13T02:49:29;16.20;99.90
10883;DHT22;5494;51.796;10.952;2022-09-13T02:52:12;16.20;99.90
10883;DHT22;5494;51.796;10.952;2022-09-13T02:54:53;16.30;99.90
10883;DHT22;5494;51.796;10.952;2022-09-13T02:57:30;16.40;99.90
10883;DHT22;5494;51.796;10.952;2022-09-13T03:00:06;16.50;99.90
10883;DHT22;5494;51.796;10.952;2022-09-13T03:02:37;16.60;99.90
10883;DHT22;5494;51.796;10.952;2022-09-13T03:05:08;16.70;99.90
10883;DHT22;5494;51.796;10.952;2022-09-13T03:07:38;16.70;99.90
10883;DHT22;5494;51.796;10.952;2022-09-13T03:10:09;16.80;99.90
10883;DHT22;5494;51.796;10.952;2022-09-13T03:13:04;16.80;99.90
10883;DHT22;5494;51.796;10.952;2022-09-13T03:15:58;16.80;99.90
10883;DHT22;5494;51.796;10.952;2022-09-13T03:18:44;16.80;99.90
10883;DHT22;5494;51.796;10.952;2022-09-13T03:21:37;16.80;99.90
10883;DHT22;5494;51.796;10.952;2022-09-13T03:24:25;16.80;99.90
10883;DHT22;5494;51.796;10.952;2022-09-13T03:27:15;16.80;99.90
10883;DHT22;5494;51.796;10.952;2022-09-13T03:29:56;16.90;99.90
10883;DHT22;5494;51.796;10.952;2022-09-13T03:32:35;17.00;99.90
10883;DHT22;5494;51.796;10.952;2022-09-13T03:35:17;17.00;99.90
10883;DHT22;5494;51.796;10.952;2022-09-13T03:37:56;17.10;99.90
10883;DHT22;5494;51.796;10.952;2022-09-13T03:40:39;17.20;99.90
10883;DHT22;5494;51.796;10.952;2022-09-13T03:43:13;17.30;99.90
10883;DHT22;5494;51.796;10.952;2022-09-13T03:45:48;17.30;99.90
10883;DHT22;5494;51.796;10.952;2022-09-13T03:48:19;17.40;99.90
10883;DHT22;5494;51.796;10.952;2022-09-13T03:50:50;17.40;99.90
10883;DHT22;5494;51.796;10.952;2022-09-13T03:53:22;17.50;99.90
10883;DHT22;5494;51.796;10.952;2022-09-13T03:55:54;17.60;99.90
10883;DHT22;5494;51.796;10.952;2022-09-13T03:58:25;17.60;99.90
10883;DHT22;5494;51.796;10.952;2022-09-13T04:00:55;17.60;99.90
10883;DHT22;5494;51.796;10.952;2022-09-13T04:03:23;17.70;99.90
10883;DHT22;5494;51.796;10.952;2022-09-13T04:05:52;17.70;99.90
10883;DHT22;5494;51.796;10.952;2022-09-13T04:08:20;17.70;99.90
10883;DHT22;5494;51.796;10.952;2022-09-13T04:10:50;17.70;99.90
10883;DHT22;5494;51.796;10.952;2022-09-13T04:13:21;17.70;99.90
10883;DHT22;5494;51.796;10.952;2022-09-13T04:15:49;17.70;99.90
10883;DHT22;5494;51.796;10.952;2022-09-13T04:18:18;17.70;99.90
10883;DHT22;5494;51.796;10.952;2022-09-13T04:20:53;17.70;99.90
10883;DHT22;5494;51.796;10.952;2022-09-13T04:23:22;17.70;99.90
10883;DHT22;5494;51.796;10.952;2022-09-13T04:25:51;17.70;99.90
10883;DHT22;5494;51.796;10.952;2022-09-13T04:28:22;17.60;99.90
10883;DHT22;5494;51.796;10.952;2022-09-13T04:30:50;17.60;99.90
10883;DHT22;5494;51.796;10.952;2022-09-13T04:33:18;17.50;99.90
10883;DHT22;5494;51.796;10.952;2022-09-13T04:35:47;17.40;99.90
10883;DHT22;5494;51.796;10.952;2022-09-13T04:38:16;17.40;99.90
10883;DHT22;5494;51.796;10.952;2022-09-13T04:40:51;17.30;99.90
10883;DHT22;5494;51.796;10.952;2022-09-13T04:43:23;17.30;99.90
10883;DHT22;5494;51.796;10.952;2022-09-13T04:45:51;17.20;99.90
10883;DHT22;5494;51.796;10.952;2022-09-13T04:48:19;17.20;99.90
10883;DHT22;5494;51.796;10.952;2022-09-13T04:50:48;17.10;99.90
10883;DHT22;5494;51.796;10.952;2022-09-13T04:53:16;17.00;99.90
10883;DHT22;5494;51.796;10.952;2022-09-13T04:55:45;17.00;99.90
10883;DHT22;5494;51.796;10.952;2022-09-13T04:58:14;16.90;99.90
10883;DHT22;5494;51.796;10.952;2022-09-13T05:00:44;16.80;99.90
10883;DHT22;5494;51.796;10.952;2022-09-13T05:03:12;16.80;99.90
10883;DHT22;5494;51.796;10.952;2022-09-13T05:05:41;16.70;99.90
10883;DHT22;5494;51.796;10.952;2022-09-13T05:08:09;16.70;99.90
10883;DHT22;5494;51.796;10.952;2022-09-13T05:10:38;16.70;99.90
10883;DHT22;5494;51.796;10.952;2022-09-13T05:13:07;16.70;99.90
10883;DHT22;5494;51.796;10.952;2022-09-13T05:15:36;16.70;99.90
10883;DHT22;5494;51.796;10.952;2022-09-13T05:18:05;16.70;99.90
10883;DHT22;5494;51.796;10.952;2022-09-13T05:20:34;16.70;99.90
10883;DHT22;5494;51.796;10.952;2022-09-13T05:23:02;16.80;99.90
10883;DHT22;5494;51.796;10.952;2022-09-13T05:25:31;16.70;99.90
10883;DHT22;5494;51.796;10.952;2022-09-13T05:27:59;16.80;99.90
10883;DHT22;5494;51.796;10.952;2022-09-13T05:30:28;16.80;99.90
10883;DHT22;5494;51.796;10.952;2022-09-13T05:32:57;16.80;99.90
10883;DHT22;5494;51.796;10.952;2022-09-13T05:35:26;16.90;99.90
10883;DHT22;5494;51.796;10.952;2022-09-13T05:37:55;16.90;99.90
10883;DHT22;5494;51.796;10.952;2022-09-13T05:40:23;16.90;99.90
10883;DHT22;5494;51.796;10.952;2022-09-13T05:42:52;17.00;99.90
10883;DHT22;5494;51.796;10.952;2022-09-13T05:45:21;17.00;99.90
10883;DHT22;5494;51.796;10.952;2022-09-13T05:47:50;17.00;99.90
10883;DHT22;5494;51.796;10.952;2022-09-13T05:50:18;17.00;99.90
10883;DHT22;5494;51.796;10.952;2022-09-13T05:53:08;17.00;99.90
10883;DHT22;5494;51.796;10.952;2022-09-13T05:55:37;17.10;99.90
10883;DHT22;5494;51.796;10.952;2022-09-13T05:58:06;17.10;99.90
10883;DHT22;5494;51.796;10.952;2022-09-13T06:00:34;17.10;99.90
10883;DHT22;5494;51.796;10.952;2022-09-13T06:03:03;17.20;99.90
10883;DHT22;5494;51.796;10.952;2022-09-13T06:05:31;17.20;99.90
10883;DHT22;5494;51.796;10.952;2022-09-13T06:08:00;17.30;99.90
10883;DHT22;5494;51.796;10.952;2022-09-13T06:10:29;17.40;99.90
10883;DHT22;5494;51.796;10.952;2022-09-13T06:12:58;17.50;99.90
10883;DHT22;5494;51.796;10.952;2022-09-13T06:15:26;17.50;99.90
10883;DHT22;5494;51.796;10.952;2022-09-13T06:17:55;17.60;99.90
10883;DHT22;5494;51.796;10.952;2022-09-13T06:20:24;17.50;99.90
10883;DHT22;5494;51.796;10.952;2022-09-13T06:22:52;17.50;99.90
10883;DHT22;5494;51.796;10.952;2022-09-13T06:25:20;17.60;99.90
10883;DHT22;5494;51.796;10.952;2022-09-13T06:27:50;17.70;99.90
10883;DHT22;5494;51.796;10.952;2022-09-13T06:30:18;18.00;99.90
10883;DHT22;5494;51.796;10.952;2022-09-13T06:32:47;18.40;99.90
10883;DHT22;5494;51.796;10.952;2022-09-13T06:35:16;18.90;99.90
10883;DHT22;5494;51.796;10.952;2022-09-13T06:37:44;19.40;99.90
10883;DHT22;5494;51.796;10.952;2022-09-13T06:40:13;19.70;99.90
10883;DHT22;5494;51.796;10.952;2022-09-13T06:42:45;19.70;99.90
10883;DHT22;5494;51.796;10.952;2022-09-13T06:45:15;19.80;99.90
10883;DHT22;5494;51.796;10.952;2022-09-13T06:47:44;19.90;99.90
10883;DHT22;5494;51.796;10.952;2022-09-13T06:50:13;19.70;99.90
10883;DHT22;5494;51.796;10.952;2022-09-13T06:52:41;19.70;99.90
10883;DHT22;5494;51.796;10.952;2022-09-13T06:55:10;19.60;99.90
10883;DHT22;5494;51.796;10.952;2022-09-13T06:57:38;19.60;99.90
10883;DHT22;5494;51.796;10.952;2022-09-13T07:00:08;19.60;99.90
10883;DHT22;5494;51.796;10.952;2022-09-13T07:02:39;19.60;99.90
10883;DHT22;5494;51.796;10.952;2022-09-13T07:05:08;19.60;99.90
10883;DHT22;5494;51.796;10.952;2022-09-13T07:07:37;19.60;99.90
10883;DHT22;5494;51.796;10.952;2022-09-13T07:10:06;19.60;99.90
10883;DHT22;5494;51.796;10.952;2022-09-13T07:12:35;19.70;99.90
10883;DHT22;5494;51.796;10.952;2022-09-13T07:15:05;19.70;99.90
10883;DHT22;5494;51.796;10.952;2022-09-13T07:17:34;19.70;99.90
10883;DHT22;5494;51.796;10.952;2022-09-13T07:20:04;19.80;99.90
10883;DHT22;5494;51.796;10.952;2022-09-13T07:22:34;19.80;99.90
10883;DHT22;5494;51.796;10.952;2022-09-13T07:25:03;19.90;99.90
10883;DHT22;5494;51.796;10.952;2022-09-13T07:27:31;20.10;99.90
10883;DHT22;5494;51.796;10.952;2022-09-13T07:30:00;20.40;99.90
10883;DHT22;5494;51.796;10.952;2022-09-13T07:32:31;20.60;99.90
10883;DHT22;5494;51.796;10.952;2022-09-13T07:34:59;20.60;99.90
10883;DHT22;5494;51.796;10.952;2022-09-13T07:37:29;20.50;99.90
10883;DHT22;5494;51.796;10.952;2022-09-13T07:39:58;20.60;99.90
10883;DHT22;5494;51.796;10.952;2022-09-13T07:42:26;20.60;99.90
10883;DHT22;5494;51.796;10.952;2022-09-13T07:44:55;20.60;99.90
10883;DHT22;5494;51.796;10.952;2022-09-13T07:47:24;20.60;99.90
10883;DHT22;5494;51.796;10.952;2022-09-13T07:49:53;20.60;99.90
10883;DHT22;5494;51.796;10.952;2022-09-13T07:52:21;21.10;99.90
10883;DHT22;5494;51.796;10.952;2022-09-13T07:54:50;21.10;99.90
10883;DHT22;5494;51.796;10.952;2022-09-13T07:57:23;21.20;99.90
10883;DHT22;5494;51.796;10.952;2022-09-13T07:59:51;21.30;99.90
10883;DHT22;5494;51.796;10.952;2022-09-13T08:02:21;21.20;99.90
10883;DHT22;5494;51.796;10.952;2022-09-13T08:04:49;21.20;99.90
10883;DHT22;5494;51.796;10.952;2022-09-13T08:07:18;21.20;99.90
10883;DHT22;5494;51.796;10.952;2022-09-13T08:09:46;21.20;99.90
10883;DHT22;5494;51.796;10.952;2022-09-13T08:12:16;21.30;99.90
10883;DHT22;5494;51.796;10.952;2022-09-13T08:14:45;21.30;99.90
10883;DHT22;5494;51.796;10.952;2022-09-13T08:17:13;21.50;99.90
10883;DHT22;5494;51.796;10.952;2022-09-13T08:19:42;21.60;99.90
10883;DHT22;5494;51.796;10.952;2022-09-13T08:22:10;21.80;99.90
10883;DHT22;5494;51.796;10.952;2022-09-13T08:24:39;22.00;99.90
10883;DHT22;5494;51.796;10.952;2022-09-13T08:27:07;22.10;99.90
10883;DHT22;5494;51.796;10.952;2022-09-13T08:29:37;22.30;99.90
10883;DHT22;5494;51.796;10.952;2022-09-13T08:32:06;22.50;99.90
10883;DHT22;5494;51.796;10.952;2022-09-13T08:34:35;22.50;99.90
10883;DHT22;5494;51.796;10.952;2022-09-13T08:37:03;22.70;99.90
10883;DHT22;5494;51.796;10.952;2022-09-13T08:39:32;22.70;99.90
10883;DHT22;5494;51.796;10.952;2022-09-13T08:42:10;22.80;99.90
10883;DHT22;5494;51.796;10.952;2022-09-13T08:44:51;22.90;99.90
10883;DHT22;5494;51.796;10.952;2022-09-13T08:47:30;23.00;99.90
10883;DHT22;5494;51.796;10.952;2022-09-13T08:50:12;23.10;99.90
10883;DHT22;5494;51.796;10.952;2022-09-13T08:52:59;23.20;99.90
10883;DHT22;5494;51.796;10.952;2022-09-13T08:55:45;23.40;99.90
10883;DHT22;5494;51.796;10.952;2022-09-13T08:58:42;23.50;99.90
10883;DHT22;5494;51.796;10.952;2022-09-13T09:01:33;23.60;99.90
10883;DHT22;5494;51.796;10.952;2022-09-13T09:04:24;23.70;99.90
10883;DHT22;5494;51.796;10.952;2022-09-13T09:07:04;23.90;99.90
10883;DHT22;5494;51.796;10.952;2022-09-13T09:09:40;24.20;99.90
10883;DHT22;5494;51.796;10.952;2022-09-13T09:12:17;24.50;99.90
10883;DHT22;5494;51.796;10.952;2022-09-13T09:15:02;24.90;99.90
10883;DHT22;5494;51.796;10.952;2022-09-13T09:17:45;25.20;99.90
10883;DHT22;5494;51.796;10.952;2022-09-13T09:20:36;25.60;99.90
10883;DHT22;5494;51.796;10.952;2022-09-13T09:23:14;26.10;99.90
10883;DHT22;5494;51.796;10.952;2022-09-13T09:25:50;26.40;99.90
10883;DHT22;5494;51.796;10.952;2022-09-13T09:28:24;26.70;99.90
10883;DHT22;5494;51.796;10.952;2022-09-13T09:30:58;27.10;99.90
10883;DHT22;5494;51.796;10.952;2022-09-13T09:33:43;27.40;99.90
10883;DHT22;5494;51.796;10.952;2022-09-13T09:36:29;27.60;99.90
10883;DHT22;5494;51.796;10.952;2022-09-13T09:39:06;28.20;99.90
10883;DHT22;5494;51.796;10.952;2022-09-13T09:41:39;28.30;99.90
10883;DHT22;5494;51.796;10.952;2022-09-13T09:44:16;29.00;99.50
10883;DHT22;5494;51.796;10.952;2022-09-13T09:46:49;29.30;98.10
10883;DHT22;5494;51.796;10.952;2022-09-13T09:49:29;29.10;97.70
10883;DHT22;5494;51.796;10.952;2022-09-13T09:52:21;28.90;98.10
10883;DHT22;5494;51.796;10.952;2022-09-13T09:55:00;28.60;97.90
10883;DHT22;5494;51.796;10.952;2022-09-13T09:57:50;28.40;98.60
10883;DHT22;5494;51.796;10.952;2022-09-13T10:00:23;28.10;98.70
10883;DHT22;5494;51.796;10.952;2022-09-13T10:02:55;28.00;98.60
10883;DHT22;5494;51.796;10.952;2022-09-13T10:05:27;27.90;98.90
10883;DHT22;5494;51.796;10.952;2022-09-13T10:08:00;27.80;99.00
10883;DHT22;5494;51.796;10.952;2022-09-13T10:10:36;27.30;99.90
10883;DHT22;5494;51.796;10.952;2022-09-13T10:13:15;27.00;99.90
10883;DHT22;5494;51.796;10.952;2022-09-13T10:15:54;26.70;99.90
10883;DHT22;5494;51.796;10.952;2022-09-13T10:18:25;26.40;99.90
10883;DHT22;5494;51.796;10.952;2022-09-13T10:21:22;26.10;99.90
10883;DHT22;5494;51.796;10.952;2022-09-13T10:24:16;26.00;99.90
10883;DHT22;5494;51.796;10.952;2022-09-13T10:26:48;26.40;99.90
10883;DHT22;5494;51.796;10.952;2022-09-13T10:29:17;27.00;99.90
10883;DHT22;5494;51.796;10.952;2022-09-13T10:31:47;27.40;99.90
10883;DHT22;5494;51.796;10.952;2022-09-13T10:34:22;27.90;99.90
10883;DHT22;5494;51.796;10.952;2022-09-13T10:36:55;28.00;99.20
10883;DHT22;5494;51.796;10.952;2022-09-13T10:39:29;27.70;99.70
10883;DHT22;5494;51.796;10.952;2022-09-13T10:42:01;27.10;99.90
10883;DHT22;5494;51.796;10.952;2022-09-13T10:44:42;26.70;99.90
10883;DHT22;5494;51.796;10.952;2022-09-13T10:47:17;26.30;99.90
10883;DHT22;5494;51.796;10.952;2022-09-13T10:49:50;26.00;99.90
10883;DHT22;5494;51.796;10.952;2022-09-13T10:52:32;25.60;99.90
10883;DHT22;5494;51.796;10.952;2022-09-13T10:55:32;25.30;99.90
10883;DHT22;5494;51.796;10.952;2022-09-13T10:58:18;25.30;99.90
10883;DHT22;5494;51.796;10.952;2022-09-13T11:01:20;25.30;99.90
10883;DHT22;5494;51.796;10.952;2022-09-13T11:04:31;25.50;99.90
10883;DHT22;5494;51.796;10.952;2022-09-13T11:07:31;25.60;99.90
10883;DHT22;5494;51.796;10.952;2022-09-13T11:10:13;25.60;99.90
10883;DHT22;5494;51.796;10.952;2022-09-13T11:12:55;25.60;99.90
10883;DHT22;5494;51.796;10.952;2022-09-13T11:15:42;25.70;99.90
10883;DHT22;5494;51.796;10.952;2022-09-13T11:18:48;25.80;99.90
10883;DHT22;5494;51.796;10.952;2022-09-13T11:21:36;26.10;99.90
10883;DHT22;5494;51.796;10.952;2022-09-13T11:24:41;26.40;99.90
10883;DHT22;5494;51.796;10.952;2022-09-13T11:27:27;26.50;99.90
10883;DHT22;5494;51.796;10.952;2022-09-13T11:30:09;26.60;99.90
10883;DHT22;5494;51.796;10.952;2022-09-13T11:33:02;26.60;99.90
10883;DHT22;5494;51.796;10.952;2022-09-13T11:35:49;26.70;99.90
10883;DHT22;5494;51.796;10.952;2022-09-13T11:38:48;26.70;99.90
10883;DHT22;5494;51.796;10.952;2022-09-13T11:41:33;26.50;99.90
10883;DHT22;5494;51.796;10.952;2022-09-13T11:44:32;26.30;99.90
10883;DHT22;5494;51.796;10.952;2022-09-13T11:47:21;26.00;99.90
10883;DHT22;5494;51.796;10.952;2022-09-13T11:50:14;25.80;99.90
10883;DHT22;5494;51.796;10.952;2022-09-13T11:53:03;25.60;99.90
10883;DHT22;5494;51.796;10.952;2022-09-13T11:55:49;25.70;99.90
10883;DHT22;5494;51.796;10.952;2022-09-13T11:58:27;25.70;99.90
10883;DHT22;5494;51.796;10.952;2022-09-13T12:01:03;25.50;99.90
10883;DHT22;5494;51.796;10.952;2022-09-13T12:03:42;25.40;99.90
10883;DHT22;5494;51.796;10.952;2022-09-13T12:06:20;25.30;99.90
10883;DHT22;5494;51.796;10.952;2022-09-13T12:08:55;25.60;99.90
10883;DHT22;5494;51.796;10.952;2022-09-13T12:11:31;25.70;99.90
10883;DHT22;5494;51.796;10.952;2022-09-13T12:14:04;25.50;99.90
10883;DHT22;5494;51.796;10.952;2022-09-13T12:16:39;25.20;99.90
10883;DHT22;5494;51.796;10.952;2022-09-13T12:19:16;25.10;99.90
10883;DHT22;5494;51.796;10.952;2022-09-13T12:21:50;25.00;99.90
10883;DHT22;5494;51.796;10.952;2022-09-13T12:24:29;24.90;99.90
10883;DHT22;5494;51.796;10.952;2022-09-13T12:27:10;24.70;99.90
10883;DHT22;5494;51.796;10.952;2022-09-13T12:29:47;24.60;99.90
10883;DHT22;5494;51.796;10.952;2022-09-13T12:32:19;24.60;99.90
10883;DHT22;5494;51.796;10.952;2022-09-13T12:34:56;24.50;99.90
10883;DHT22;5494;51.796;10.952;2022-09-13T12:37:49;24.50;99.90
10883;DHT22;5494;51.796;10.952;2022-09-13T12:40:42;24.50;99.90
10883;DHT22;5494;51.796;10.952;2022-09-13T12:43:51;24.50;99.90
10883;DHT22;5494;51.796;10.952;2022-09-13T12:47:00;24.70;99.90
10883;DHT22;5494;51.796;10.952;2022-09-13T12:50:07;24.70;99.90
10883;DHT22;5494;51.796;10.952;2022-09-13T12:53:11;24.40;99.90
10883;DHT22;5494;51.796;10.952;2022-09-13T12:56:02;24.30;99.90
10883;DHT22;5494;51.796;10.952;2022-09-13T12:59:08;24.30;99.90
10883;DHT22;5494;51.796;10.952;2022-09-13T13:01:52;24.20;99.90
10883;DHT22;5494;51.796;10.952;2022-09-13T13:04:24;24.10;99.90
10883;DHT22;5494;51.796;10.952;2022-09-13T13:06:59;24.00;99.90
10883;DHT22;5494;51.796;10.952;2022-09-13T13:09:35;24.00;99.90
10883;DHT22;5494;51.796;10.952;2022-09-13T13:12:07;23.80;99.90
10883;DHT22;5494;51.796;10.952;2022-09-13T13:14:46;23.70;99.90
10883;DHT22;5494;51.796;10.952;2022-09-13T13:17:43;23.60;99.90
10883;DHT22;5494;51.796;10.952;2022-09-13T13:20:47;23.60;99.90
10883;DHT22;5494;51.796;10.952;2022-09-13T13:23:35;23.70;99.90
10883;DHT22;5494;51.796;10.952;2022-09-13T13:26:10;23.90;99.90
10883;DHT22;5494;51.796;10.952;2022-09-13T13:29:15;24.10;99.90
10883;DHT22;5494;51.796;10.952;2022-09-13T13:32:04;24.20;99.90
10883;DHT22;5494;51.796;10.952;2022-09-13T13:34:43;24.30;99.90
10883;DHT22;5494;51.796;10.952;2022-09-13T13:37:31;24.10;99.90
10883;DHT22;5494;51.796;10.952;2022-09-13T13:40:22;23.90;99.90
10883;DHT22;5494;51.796;10.952;2022-09-13T13:43:16;23.90;99.90
10883;DHT22;5494;51.796;10.952;2022-09-13T13:46:24;23.90;99.90
10883;DHT22;5494;51.796;10.952;2022-09-13T13:48:54;23.80;99.90
10883;DHT22;5494;51.796;10.952;2022-09-13T13:51:26;23.80;99.90
10883;DHT22;5494;51.796;10.952;2022-09-13T13:53:59;23.60;99.90
10883;DHT22;5494;51.796;10.952;2022-09-13T13:56:34;23.50;99.90
10883;DHT22;5494;51.796;10.952;2022-09-13T13:59:16;23.40;99.90
10883;DHT22;5494;51.796;10.952;2022-09-13T14:01:53;23.20;99.90
10883;DHT22;5494;51.796;10.952;2022-09-13T14:07:56;22.90;99.90
10883;DHT22;5494;51.796;10.952;2022-09-13T14:10:44;22.80;99.90
10883;DHT22;5494;51.796;10.952;2022-09-13T14:13:38;22.90;99.90
10883;DHT22;5494;51.796;10.952;2022-09-13T14:16:19;22.90;99.90
10883;DHT22;5494;51.796;10.952;2022-09-13T14:19:17;22.90;99.90
10883;DHT22;5494;51.796;10.952;2022-09-13T14:22:11;22.90;99.90
10883;DHT22;5494;51.796;10.952;2022-09-13T14:24:43;23.00;99.90
10883;DHT22;5494;51.796;10.952;2022-09-13T14:27:18;23.00;99.90
10883;DHT22;5494;51.796;10.952;2022-09-13T14:29:51;23.00;99.90
10883;DHT22;5494;51.796;10.952;2022-09-13T14:32:24;23.00;99.90
10883;DHT22;5494;51.796;10.952;2022-09-13T14:35:22;23.00;99.90
10883;DHT22;5494;51.796;10.952;2022-09-13T14:37:53;23.00;99.90
10883;DHT22;5494;51.796;10.952;2022-09-13T14:40:24;23.10;99.90
10883;DHT22;5494;51.796;10.952;2022-09-13T14:42:55;23.20;99.90
10883;DHT22;5494;51.796;10.952;2022-09-13T14:45:26;23.10;99.90
10883;DHT22;5494;51.796;10.952;2022-09-13T14:48:02;23.10;99.90
10883;DHT22;5494;51.796;10.952;2022-09-13T14:50:38;23.10;99.90
10883;DHT22;5494;51.796;10.952;2022-09-13T14:53:13;23.20;99.90
10883;DHT22;5494;51.796;10.952;2022-09-13T14:55:48;23.20;99.90
10883;DHT22;5494;51.796;10.952;2022-09-13T14:58:22;23.20;99.90
10883;DHT22;5494;51.796;10.952;2022-09-13T15:00:57;23.20;99.90
10883;DHT22;5494;51.796;10.952;2022-09-13T15:03:27;23.20;99.90
10883;DHT22;5494;51.796;10.952;2022-09-13T15:05:59;23.20;99.90
10883;DHT22;5494;51.796;10.952;2022-09-13T15:08:43;23.20;99.90
10883;DHT22;5494;51.796;10.952;2022-09-13T15:11:16;23.20;99.90
10883;DHT22;5494;51.796;10.952;2022-09-13T15:14:23;23.20;99.90
10883;DHT22;5494;51.796;10.952;2022-09-13T15:16:57;23.10;99.90
10883;DHT22;5494;51.796;10.952;2022-09-13T15:19:34;23.10;99.90
10883;DHT22;5494;51.796;10.952;2022-09-13T15:22:13;23.00;99.90
10883;DHT22;5494;51.796;10.952;2022-09-13T15:24:47;22.90;99.90
10883;DHT22;5494;51.796;10.952;2022-09-13T15:27:24;22.90;99.90
10883;DHT22;5494;51.796;10.952;2022-09-13T15:29:55;22.80;99.90
10883;DHT22;5494;51.796;10.952;2022-09-13T15:32:32;22.70;99.90
10883;DHT22;5494;51.796;10.952;2022-09-13T15:35:16;22.60;99.90
10883;DHT22;5494;51.796;10.952;2022-09-13T15:37:59;22.50;99.90
10883;DHT22;5494;51.796;10.952;2022-09-13T15:40:29;22.50;99.90
10883;DHT22;5494;51.796;10.952;2022-09-13T15:43:10;22.40;99.90
10883;DHT22;5494;51.796;10.952;2022-09-13T15:45:38;22.40;99.90
10883;DHT22;5494;51.796;10.952;2022-09-13T15:48:07;22.40;99.90
10883;DHT22;5494;51.796;10.952;2022-09-13T15:51:05;22.40;99.90
10883;DHT22;5494;51.796;10.952;2022-09-13T15:53:40;22.40;99.90
10883;DHT22;5494;51.796;10.952;2022-09-13T15:56:13;22.50;99.90
10883;DHT22;5494;51.796;10.952;2022-09-13T15:58:43;22.50;99.90
10883;DHT22;5494;51.796;10.952;2022-09-13T16:01:13;22.40;99.90
10883;DHT22;5494;51.796;10.952;2022-09-13T16:03:43;22.50;99.90
10883;DHT22;5494;51.796;10.952;2022-09-13T16:06:12;22.50;99.90
10883;DHT22;5494;51.796;10.952;2022-09-13T16:08:42;22.60;99.90
10883;DHT22;5494;51.796;10.952;2022-09-13T16:11:10;22.60;99.90
10883;DHT22;5494;51.796;10.952;2022-09-13T16:13:38;22.60;99.90
10883;DHT22;5494;51.796;10.952;2022-09-13T16:16:10;22.60;99.90
10883;DHT22;5494;51.796;10.952;2022-09-13T16:18:41;22.50;99.90
10883;DHT22;5494;51.796;10.952;2022-09-13T16:21:09;22.50;99.90
10883;DHT22;5494;51.796;10.952;2022-09-13T16:23:38;22.40;99.90
10883;DHT22;5494;51.796;10.952;2022-09-13T16:26:09;22.40;99.90
10883;DHT22;5494;51.796;10.952;2022-09-13T16:28:38;22.30;99.90
10883;DHT22;5494;51.796;10.952;2022-09-13T16:31:07;22.30;99.90
10883;DHT22;5494;51.796;10.952;2022-09-13T16:33:36;22.20;99.90
10883;DHT22;5494;51.796;10.952;2022-09-13T16:36:05;22.20;99.90